Flossmoor, Illinois
Current Conditions -  °F | °C
As of 10:35 PM on Wednesday 26 Nov 2014 (Local Time) from KIGQ Reporting Station
Overcast Overcast  
Wind Chill: 21°   Ceiling: 2900
Heat Index: 28°   Visibility: 10mi
Dew Point: 22°   Wind: 7mph
Humidity: 77%   Direction: 280°W
Pressure: 30.17"   Gusts: NA
Location:  41.54°N, 87.68°W
Report Text: KIGQ 270435Z AUTO 28006KT 10SM OVC029 M02/M06 A3017 RMK AO2 T10211056
Loading
Personal Weather Stations






























Interactive Weather Map New forecast layout! Learn more

10-Day Weather Forecast

Advertisements
Track Severe Weather on mobile